createdAt,value
2019-05-23T00:01:02.338Z,2.00
2019-05-23T00:03:59.550Z,2.17
2019-05-23T00:06:48.378Z,1.67
2019-05-23T00:09:37.880Z,1.57
2019-05-23T00:12:35.703Z,1.73
2019-05-23T00:15:26.070Z,1.50
2019-05-23T00:17:57.275Z,1.47
2019-05-23T00:20:29.298Z,1.70
2019-05-23T00:23:00.486Z,1.60
2019-05-23T00:25:33.308Z,1.80
2019-05-23T00:28:06.280Z,1.57
2019-05-23T00:30:50.248Z,1.30
2019-05-23T00:33:25.482Z,1.80
2019-05-23T00:35:56.857Z,1.40
2019-05-23T00:38:28.162Z,1.80
2019-05-23T00:40:59.812Z,1.73
2019-05-23T00:43:31.014Z,1.20
2019-05-23T00:46:02.332Z,1.50
2019-05-23T00:48:33.919Z,1.70
2019-05-23T00:51:06.044Z,1.50
2019-05-23T00:53:37.866Z,1.90
2019-05-23T00:56:09.678Z,1.57
2019-05-23T00:58:41.107Z,1.60
2019-05-23T01:01:13.610Z,1.50
2019-05-23T01:03:44.195Z,1.70
2019-05-23T01:06:16.135Z,1.30
2019-05-23T01:08:47.884Z,1.33
2019-05-23T01:11:19.041Z,1.40
2019-05-23T01:13:49.571Z,1.50
2019-05-23T01:16:23.604Z,2.17
2019-05-23T01:18:54.894Z,1.90
2019-05-23T01:21:50.725Z,1.70
2019-05-23T01:24:24.424Z,1.90
2019-05-23T01:26:56.362Z,1.97
2019-05-23T01:29:37.342Z,2.00
2019-05-23T01:32:07.691Z,1.97
2019-05-23T01:34:40.574Z,2.03
2019-05-23T01:37:11.232Z,1.80
2019-05-23T01:39:42.986Z,1.83
2019-05-23T01:42:14.251Z,1.80
2019-05-23T01:44:47.068Z,1.90
2019-05-23T01:47:18.359Z,1.80
2019-05-23T01:49:49.232Z,2.13
2019-05-23T01:52:20.172Z,1.80
2019-05-23T01:54:50.921Z,2.10
2019-05-23T01:57:22.528Z,1.83
2019-05-23T02:00:09.023Z,1.80
2019-05-23T02:02:28.675Z,1.80
2019-05-23T02:05:00.504Z,1.70
2019-05-23T02:07:31.383Z,1.43
2019-05-23T02:10:01.986Z,1.60
2019-05-23T02:12:33.574Z,1.70
2019-05-23T02:15:04.690Z,1.43
2019-05-23T02:17:36.730Z,1.50
2019-05-23T02:20:07.893Z,1.53
2019-05-23T02:22:40.142Z,1.40
2019-05-23T02:25:14.126Z,1.30
2019-05-23T02:27:45.532Z,1.33
2019-05-23T02:30:32.891Z,1.40
2019-05-23T02:32:51.263Z,1.70
2019-05-23T02:35:23.069Z,1.73
2019-05-23T02:38:21.524Z,1.73
2019-05-23T02:41:10.279Z,1.47
2019-05-23T02:43:45.573Z,2.00
2019-05-23T02:46:27.706Z,2.47
2019-05-23T02:49:03.183Z,1.90
2019-05-23T02:51:37.176Z,2.20
2019-05-23T02:54:12.046Z,2.50
2019-05-23T02:56:43.874Z,2.50
2019-05-23T02:59:49.126Z,2.10
2019-05-23T03:03:01.371Z,2.33
2019-05-23T03:05:37.497Z,2.70
2019-05-23T03:08:12.535Z,2.33
2019-05-23T03:10:58.610Z,2.27
2019-05-23T03:13:32.544Z,2.30
2019-05-23T03:16:05.969Z,2.93
2019-05-23T03:18:41.563Z,2.77
2019-05-23T03:21:14.405Z,2.43
2019-05-23T03:23:48.002Z,2.67
2019-05-23T03:27:01.480Z,2.70
2019-05-23T03:29:34.479Z,2.53
2019-05-23T03:32:37.314Z,2.70
2019-05-23T03:35:20.805Z,2.50
2019-05-23T03:37:53.514Z,2.50
2019-05-23T03:40:25.174Z,2.53
2019-05-23T03:42:55.811Z,3.07
2019-05-23T03:45:30.571Z,2.53
2019-05-23T03:48:03.106Z,1.77
2019-05-23T03:50:34.228Z,1.83
2019-05-23T03:53:06.319Z,1.90
2019-05-23T03:55:38.627Z,2.07
2019-05-23T03:58:10.078Z,1.47
2019-05-23T04:00:47.395Z,1.70
2019-05-23T04:03:18.169Z,1.70
2019-05-23T04:05:49.301Z,1.83
2019-05-23T04:08:21.023Z,1.50
2019-05-23T04:10:52.792Z,1.47
2019-05-23T04:13:25.252Z,1.67
2019-05-23T04:15:55.828Z,1.93
2019-05-23T04:18:27.144Z,1.63
2019-05-23T04:20:57.802Z,1.57
2019-05-23T04:23:28.544Z,7.57
2019-05-23T04:25:59.712Z,1.70
2019-05-23T04:28:30.576Z,1.73
2019-05-23T04:31:01.821Z,2.30
2019-05-23T04:33:33.206Z,2.60
2019-05-23T04:36:04.823Z,4.50
2019-05-23T04:38:36.623Z,6.27
2019-05-23T04:41:07.480Z,5.17
2019-05-23T04:43:38.071Z,3.53
2019-05-23T04:46:08.881Z,2.87
2019-05-23T04:48:39.896Z,2.37
2019-05-23T04:51:10.880Z,2.27
2019-05-23T04:53:42.441Z,2.03
2019-05-23T04:56:14.443Z,1.90
2019-05-23T04:58:45.395Z,1.73
2019-05-23T05:01:17.789Z,1.60
2019-05-23T05:03:50.550Z,1.43
2019-05-23T05:06:21.840Z,1.40
2019-05-23T05:08:54.599Z,1.50
2019-05-23T05:11:30.244Z,1.87
2019-05-23T05:13:58.777Z,1.73
2019-05-23T05:16:29.764Z,1.73
2019-05-23T05:19:01.187Z,1.50
2019-05-23T05:21:32.138Z,1.80
2019-05-23T05:24:03.359Z,1.57
2019-05-23T05:26:34.301Z,1.63
2019-05-23T05:29:05.398Z,1.43
2019-05-23T05:31:36.363Z,1.60
2019-05-23T05:34:06.956Z,1.50
2019-05-23T05:36:37.803Z,1.57
2019-05-23T05:39:12.985Z,2.00
2019-05-23T05:41:43.705Z,1.83
2019-05-23T05:44:15.768Z,1.87
2019-05-23T05:46:46.751Z,2.30
2019-05-23T05:49:17.527Z,2.03
2019-05-23T05:51:48.694Z,2.10
2019-05-23T05:54:19.598Z,1.80
2019-05-23T05:56:50.269Z,2.27
2019-05-23T05:59:20.908Z,2.40
2019-05-23T06:01:53.075Z,2.90
2019-05-23T06:04:23.901Z,2.60
2019-05-23T06:07:01.807Z,2.57
2019-05-23T06:09:33.127Z,2.83
2019-05-23T06:12:04.707Z,1.80
2019-05-23T06:14:35.858Z,2.03
2019-05-23T06:17:09.125Z,2.00
2019-05-23T06:19:39.831Z,1.60
2019-05-23T06:22:10.319Z,1.80
2019-05-23T06:24:49.499Z,1.60
2019-05-23T06:27:15.656Z,1.57
2019-05-23T06:29:46.702Z,1.97
2019-05-23T06:32:21.160Z,2.60
2019-05-23T06:34:52.428Z,2.30
2019-05-23T06:37:24.143Z,2.40
2019-05-23T06:39:56.664Z,1.80
2019-05-23T06:42:27.186Z,1.60
2019-05-23T06:44:58.317Z,1.50
2019-05-23T06:47:29.929Z,1.97
2019-05-23T06:50:00.706Z,1.77
2019-05-23T06:52:31.407Z,2.10
2019-05-23T06:55:03.056Z,2.13
2019-05-23T06:57:33.645Z,1.70
2019-05-23T07:00:04.506Z,1.67
2019-05-23T07:02:35.878Z,1.60
2019-05-23T07:05:07.219Z,1.37
2019-05-23T07:07:38.269Z,1.20
2019-05-23T07:10:09.390Z,1.60
2019-05-23T07:12:40.375Z,1.63
2019-05-23T07:15:11.947Z,1.50
2019-05-23T07:17:42.686Z,2.00
2019-05-23T07:20:15.564Z,2.10
2019-05-23T07:22:46.273Z,2.07
2019-05-23T07:25:16.984Z,1.97
2019-05-23T07:27:47.834Z,1.70
2019-05-23T07:30:22.353Z,2.37
2019-05-23T07:32:53.345Z,1.97
2019-05-23T07:35:26.034Z,2.10
2019-05-23T07:37:56.724Z,2.43
2019-05-23T07:40:29.100Z,2.80
2019-05-23T07:42:59.655Z,2.70
2019-05-23T07:45:39.732Z,2.70
2019-05-23T07:48:09.548Z,2.90
2019-05-23T07:50:41.312Z,2.40
2019-05-23T07:53:16.436Z,2.53
2019-05-23T07:55:48.868Z,3.40
2019-05-23T07:58:19.660Z,2.60
2019-05-23T08:00:57.264Z,2.93
2019-05-23T08:03:30.599Z,3.20
2019-05-23T08:06:03.365Z,3.80
2019-05-23T08:08:34.539Z,3.00
2019-05-23T08:11:05.484Z,3.13
2019-05-23T08:13:36.815Z,3.03
2019-05-23T08:16:07.549Z,3.43
2019-05-23T08:18:37.990Z,3.30
2019-05-23T08:21:08.852Z,3.40
2019-05-23T08:23:39.324Z,3.20
2019-05-23T08:26:10.935Z,3.13
2019-05-23T08:29:01.010Z,3.20
2019-05-23T08:31:14.595Z,3.30
2019-05-23T08:33:45.840Z,2.60
2019-05-23T08:36:16.941Z,2.67
2019-05-23T08:38:48.240Z,2.60
2019-05-23T08:41:18.982Z,2.40
2019-05-23T08:43:51.176Z,2.10
2019-05-23T08:46:21.699Z,2.73
2019-05-23T08:48:52.299Z,2.30
2019-05-23T08:51:24.249Z,2.30
2019-05-23T08:53:55.049Z,2.10
2019-05-23T08:56:25.519Z,2.43
2019-05-23T08:58:55.925Z,2.57
2019-05-23T09:01:27.050Z,2.60
2019-05-23T09:03:59.415Z,2.50
2019-05-23T09:06:30.873Z,2.27
2019-05-23T09:09:22.209Z,3.13
2019-05-23T09:11:38.001Z,3.10
2019-05-23T09:14:09.165Z,4.23
2019-05-23T09:16:39.866Z,4.60
2019-05-23T09:19:10.599Z,4.10
2019-05-23T09:21:41.548Z,4.10
2019-05-23T09:24:12.640Z,5.27
2019-05-23T09:26:43.500Z,3.80
2019-05-23T09:29:15.759Z,3.30
2019-05-23T09:31:46.748Z,3.70
2019-05-23T09:34:18.026Z,3.10
2019-05-23T09:36:48.944Z,3.83
2019-05-23T09:39:22.789Z,3.50
2019-05-23T09:41:53.420Z,3.57
2019-05-23T09:44:23.926Z,3.17
2019-05-23T09:46:54.701Z,4.13
2019-05-23T09:49:26.038Z,3.87
2019-05-23T09:52:01.000Z,3.53
2019-05-23T09:54:30.574Z,3.20
2019-05-23T09:57:01.258Z,4.63
2019-05-23T09:59:32.142Z,4.17
2019-05-23T10:02:02.880Z,3.97
2019-05-23T10:04:34.366Z,4.20
2019-05-23T10:07:05.213Z,3.20
2019-05-23T10:09:35.902Z,3.37
2019-05-23T10:12:06.686Z,3.87
2019-05-23T10:14:39.077Z,3.30
2019-05-23T10:17:09.805Z,3.37
2019-05-23T10:19:40.534Z,4.30
2019-05-23T10:22:12.003Z,4.20
2019-05-23T10:24:42.715Z,4.57
2019-05-23T10:27:13.731Z,4.60
2019-05-23T10:29:45.287Z,4.33
2019-05-23T10:32:16.159Z,4.03
2019-05-23T10:34:46.989Z,4.03
2019-05-23T10:37:18.867Z,3.37
2019-05-23T10:39:54.179Z,4.70
2019-05-23T10:42:27.837Z,3.97
2019-05-23T10:44:58.437Z,4.53
2019-05-23T10:47:29.320Z,4.30
2019-05-23T10:49:59.983Z,4.27
2019-05-23T10:52:31.046Z,4.47
2019-05-23T10:55:01.963Z,4.07
2019-05-23T10:57:33.135Z,3.73
2019-05-23T11:00:04.444Z,3.90
2019-05-23T11:02:36.740Z,3.43
2019-05-23T11:05:13.049Z,4.50
2019-05-23T11:07:42.918Z,4.87
2019-05-23T11:10:15.446Z,4.73
2019-05-23T11:12:46.206Z,4.30
2019-05-23T11:15:18.039Z,4.83
2019-05-23T11:17:52.512Z,4.70
2019-05-23T11:20:22.817Z,4.37
2019-05-23T11:22:54.663Z,4.17
2019-05-23T11:25:26.187Z,4.60
2019-05-23T11:27:57.245Z,4.30
2019-05-23T11:30:58.738Z,4.50
2019-05-23T11:33:30.631Z,4.23
2019-05-23T11:36:03.599Z,3.60
2019-05-23T11:38:34.359Z,4.60
2019-05-23T11:41:05.343Z,4.60
2019-05-23T11:43:35.942Z,4.60
2019-05-23T11:46:14.759Z,6.13
2019-05-23T11:48:45.343Z,5.37
2019-05-23T11:51:17.118Z,5.93
2019-05-23T11:54:05.966Z,5.33
2019-05-23T11:56:20.053Z,5.07
2019-05-23T11:58:51.166Z,5.27
2019-05-23T12:01:44.244Z,6.17
2019-05-23T12:04:17.107Z,4.97
2019-05-23T12:06:55.833Z,5.10
2019-05-23T12:09:27.029Z,5.33
2019-05-23T12:11:57.692Z,4.77
2019-05-23T12:14:28.600Z,5.10
2019-05-23T12:16:59.771Z,4.63
2019-05-23T12:19:30.514Z,5.33
2019-05-23T12:22:01.376Z,4.50
2019-05-23T12:24:35.316Z,4.60
2019-05-23T12:27:04.945Z,5.13
2019-05-23T12:29:36.674Z,5.00
2019-05-23T12:32:08.721Z,5.23
2019-05-23T12:34:39.381Z,5.10
2019-05-23T12:37:20.049Z,4.67
2019-05-23T12:39:42.192Z,4.87
2019-05-23T12:42:13.397Z,5.13
2019-05-23T12:44:44.070Z,4.60
2019-05-23T12:47:31.138Z,5.97
2019-05-23T12:50:06.351Z,4.53
2019-05-23T12:52:37.901Z,4.73
2019-05-23T12:55:08.707Z,4.17
2019-05-23T12:57:39.500Z,4.97
2019-05-23T13:00:16.935Z,4.77
2019-05-23T13:02:48.184Z,4.07
2019-05-23T13:05:19.066Z,4.77
2019-05-23T13:07:50.892Z,4.30
2019-05-23T13:10:24.757Z,4.83
2019-05-23T13:12:54.147Z,6.53
2019-05-23T13:15:25.084Z,6.33
2019-05-23T13:17:55.784Z,6.83
2019-05-23T13:20:26.836Z,7.07
2019-05-23T13:22:57.763Z,6.77
2019-05-23T13:25:29.040Z,5.90
2019-05-23T13:28:00.050Z,6.07
2019-05-23T13:30:30.753Z,6.67
2019-05-23T13:33:03.854Z,6.60
2019-05-23T13:35:35.698Z,7.33
2019-05-23T13:38:06.483Z,7.07
2019-05-23T13:40:37.305Z,6.60
2019-05-23T13:43:09.111Z,8.00
2019-05-23T13:45:39.944Z,6.70
2019-05-23T13:48:10.841Z,7.27
2019-05-23T13:50:41.832Z,7.03
2019-05-23T13:53:13.848Z,7.13
2019-05-23T13:55:44.745Z,6.77
2019-05-23T13:58:15.507Z,7.23
2019-05-23T14:00:48.024Z,7.90
2019-05-23T14:03:18.823Z,8.23
2019-05-23T14:05:49.851Z,8.80
2019-05-23T14:08:20.994Z,10.47
2019-05-23T14:10:52.880Z,9.93
2019-05-23T14:13:24.601Z,8.97
2019-05-23T14:15:55.961Z,8.23
2019-05-23T14:18:28.420Z,8.30
2019-05-23T14:20:59.007Z,7.50
2019-05-23T14:23:33.869Z,7.80
2019-05-23T14:26:06.399Z,7.87
2019-05-23T14:28:37.227Z,6.73
2019-05-23T14:31:19.217Z,7.37
2019-05-23T14:34:07.706Z,7.30
2019-05-23T14:36:57.709Z,8.37
2019-05-23T14:39:35.866Z,7.93
2019-05-23T14:42:31.778Z,7.33
2019-05-23T14:45:02.398Z,6.90
2019-05-23T14:47:49.388Z,8.17
2019-05-23T14:50:35.870Z,8.30
2019-05-23T14:53:07.321Z,7.77
2019-05-23T14:55:38.343Z,7.40
2019-05-23T14:58:09.585Z,8.40
2019-05-23T15:00:41.340Z,7.93
2019-05-23T15:03:12.039Z,7.70
2019-05-23T15:05:42.966Z,8.87
2019-05-23T15:08:13.804Z,8.77
2019-05-23T15:10:44.552Z,7.90
2019-05-23T15:13:15.198Z,8.50
2019-05-23T15:15:45.879Z,6.97
2019-05-23T15:18:16.615Z,9.10
2019-05-23T15:20:47.516Z,7.50
2019-05-23T15:23:18.467Z,8.53
2019-05-23T15:25:49.519Z,8.80
2019-05-23T15:28:20.264Z,7.83
2019-05-23T15:30:51.349Z,7.90
2019-05-23T15:33:22.871Z,8.37
2019-05-23T15:35:53.764Z,8.23
2019-05-23T15:38:25.223Z,9.20
2019-05-23T15:40:56.714Z,9.10
2019-05-23T15:43:28.186Z,8.27
2019-05-23T15:45:59.194Z,8.60
2019-05-23T15:48:29.699Z,8.83
2019-05-23T15:51:00.215Z,8.93
2019-05-23T15:53:49.375Z,9.13
2019-05-23T15:56:30.216Z,9.30
2019-05-23T15:59:29.202Z,9.83
2019-05-23T16:02:08.401Z,10.67
2019-05-23T16:04:39.498Z,10.53
2019-05-23T16:07:12.033Z,10.17
2019-05-23T16:09:42.785Z,11.97
2019-05-23T16:12:13.962Z,10.93
2019-05-23T16:14:45.259Z,11.10
2019-05-23T16:17:15.903Z,11.60
2019-05-23T16:19:46.694Z,11.80
2019-05-23T16:22:17.774Z,12.60
2019-05-23T16:24:48.491Z,12.33
2019-05-23T16:27:20.101Z,13.03
2019-05-23T16:29:50.828Z,11.33
2019-05-23T16:32:21.626Z,11.67
2019-05-23T16:34:52.539Z,10.80
2019-05-23T16:37:23.643Z,11.27
2019-05-23T16:39:55.518Z,10.50
2019-05-23T16:42:26.333Z,10.40
2019-05-23T16:44:57.139Z,10.57
2019-05-23T16:47:28.867Z,10.73
2019-05-23T16:49:59.744Z,11.70
2019-05-23T16:52:30.388Z,14.53
2019-05-23T16:55:01.894Z,12.97
2019-05-23T16:57:54.545Z,10.93
2019-05-23T17:00:51.930Z,10.47
2019-05-23T17:03:32.961Z,10.30
2019-05-23T17:06:16.073Z,10.20
2019-05-23T17:09:11.744Z,9.60
2019-05-23T17:12:04.611Z,10.73
2019-05-23T17:14:41.268Z,12.03
2019-05-23T17:17:56.678Z,14.93
2019-05-23T17:20:20.061Z,11.10
2019-05-23T17:23:14.482Z,10.40
2019-05-23T17:26:02.757Z,11.03
2019-05-23T17:28:42.423Z,11.13
2019-05-23T17:31:15.819Z,11.40
2019-05-23T17:33:47.167Z,10.60
2019-05-23T17:36:18.253Z,10.67
2019-05-23T17:38:50.113Z,11.67
2019-05-23T17:41:21.722Z,12.57
2019-05-23T17:43:53.104Z,12.73
2019-05-23T17:46:24.227Z,13.17
2019-05-23T17:48:56.441Z,11.60
2019-05-23T17:51:27.899Z,12.45
2019-05-23T17:53:58.784Z,11.70
2019-05-23T17:56:29.481Z,12.50
2019-05-23T17:59:00.507Z,12.50
2019-05-23T18:01:32.500Z,11.80
2019-05-23T18:04:03.606Z,12.67
2019-05-23T18:06:34.783Z,12.70
2019-05-23T18:09:08.358Z,12.90
2019-05-23T18:11:39.326Z,12.53
2019-05-23T18:14:10.777Z,12.67
2019-05-23T18:16:42.981Z,11.80
2019-05-23T18:19:14.761Z,13.50
2019-05-23T18:21:45.620Z,13.47
2019-05-23T18:24:16.712Z,13.53
2019-05-23T18:26:47.628Z,13.20
2019-05-23T18:29:19.541Z,14.00
2019-05-23T18:31:51.359Z,16.80
2019-05-23T18:34:23.938Z,15.77
2019-05-23T18:36:54.759Z,17.10
2019-05-23T18:39:25.875Z,16.87
2019-05-23T18:41:56.679Z,15.93
2019-05-23T18:44:27.149Z,18.17
2019-05-23T18:47:01.275Z,17.37
2019-05-23T18:49:32.482Z,16.40
2019-05-23T18:52:04.127Z,17.80
2019-05-23T18:54:34.834Z,17.63
2019-05-23T18:57:05.814Z,17.70
2019-05-23T18:59:36.824Z,16.90
2019-05-23T19:02:08.219Z,17.40
2019-05-23T19:04:38.930Z,18.30
2019-05-23T19:07:11.766Z,18.30
2019-05-23T19:09:43.871Z,18.00
2019-05-23T19:12:15.132Z,19.70
2019-05-23T19:14:46.062Z,19.80
2019-05-23T19:17:16.570Z,18.37
2019-05-23T19:19:47.470Z,19.17
2019-05-23T19:22:19.268Z,19.47
2019-05-23T19:24:49.726Z,19.53
2019-05-23T19:27:20.907Z,19.20
2019-05-23T19:29:51.593Z,17.63
2019-05-23T19:32:23.264Z,16.07
2019-05-23T19:34:54.553Z,17.23
2019-05-23T19:37:25.650Z,15.67
2019-05-23T19:39:56.622Z,15.60
2019-05-23T19:42:27.493Z,14.47
2019-05-23T19:44:58.025Z,12.83
2019-05-23T19:47:29.165Z,13.57
2019-05-23T19:49:59.982Z,13.63
2019-05-23T19:52:32.184Z,12.43
2019-05-23T19:55:03.137Z,11.70
2019-05-23T19:57:34.497Z,12.00
2019-05-23T20:00:07.731Z,11.57
2019-05-23T20:02:59.230Z,11.97
2019-05-23T20:05:34.982Z,11.40
2019-05-23T20:08:06.373Z,10.90
2019-05-23T20:10:41.688Z,10.60
2019-05-23T20:13:12.928Z,11.00
2019-05-23T20:15:45.813Z,10.93
2019-05-23T20:18:16.657Z,10.20
2019-05-23T20:20:48.195Z,9.77
2019-05-23T20:23:19.234Z,10.03
2019-05-23T20:25:50.396Z,9.63
2019-05-23T20:28:21.521Z,10.23
2019-05-23T20:30:53.991Z,10.17
2019-05-23T20:33:25.075Z,11.07
2019-05-23T20:35:56.221Z,10.03
2019-05-23T20:38:27.498Z,10.57
2019-05-23T20:40:58.246Z,11.27
2019-05-23T20:43:29.038Z,10.03
2019-05-23T20:45:59.775Z,10.60
2019-05-23T20:48:30.546Z,12.73
2019-05-23T20:51:01.679Z,12.40
2019-05-23T20:53:32.976Z,13.47
2019-05-23T20:56:03.628Z,13.27
2019-05-23T20:58:34.591Z,12.83
2019-05-23T21:01:22.931Z,13.47
2019-05-23T21:03:55.849Z,12.97
2019-05-23T21:06:27.049Z,13.50
2019-05-23T21:08:58.142Z,14.17
2019-05-23T21:11:28.867Z,15.00
2019-05-23T21:14:00.258Z,13.90
2019-05-23T21:16:31.666Z,13.00
2019-05-23T21:19:02.690Z,13.77
2019-05-23T21:21:33.461Z,14.13
2019-05-23T21:24:04.862Z,15.23
2019-05-23T21:26:36.378Z,14.40
2019-05-23T21:29:07.242Z,14.77
2019-05-23T21:31:38.718Z,14.43
2019-05-23T21:34:09.523Z,15.57
2019-05-23T21:36:40.987Z,14.83
2019-05-23T21:39:13.096Z,16.17
2019-05-23T21:41:43.690Z,15.40
2019-05-23T21:44:14.523Z,16.30
2019-05-23T21:46:45.370Z,16.27
2019-05-23T21:49:16.346Z,16.30
2019-05-23T21:51:47.376Z,17.00
2019-05-23T21:54:18.666Z,18.63
2019-05-23T21:56:49.285Z,18.60
2019-05-23T21:59:20.213Z,19.90
2019-05-23T22:02:16.288Z,21.20
2019-05-23T22:05:10.524Z,21.20
2019-05-23T22:07:41.386Z,21.17
2019-05-23T22:10:12.551Z,20.50
2019-05-23T22:12:43.755Z,20.67
2019-05-23T22:15:18.463Z,21.43
2019-05-23T22:17:49.081Z,21.70
2019-05-23T22:20:20.031Z,22.57
2019-05-23T22:22:51.179Z,21.63
2019-05-23T22:25:32.875Z,24.03
2019-05-23T22:28:03.695Z,23.47
2019-05-23T22:30:34.587Z,22.83
2019-05-23T22:33:05.855Z,24.30
2019-05-23T22:35:36.649Z,23.70
2019-05-23T22:38:07.856Z,24.13
2019-05-23T22:40:38.990Z,23.63
2019-05-23T22:43:20.694Z,25.57
2019-05-23T22:45:42.229Z,24.57
2019-05-23T22:48:12.931Z,23.83
2019-05-23T22:50:43.814Z,24.53
2019-05-23T22:53:14.559Z,24.47
2019-05-23T22:55:45.762Z,23.37
2019-05-23T22:58:16.553Z,24.83
2019-05-23T23:00:49.486Z,24.90
2019-05-23T23:03:20.330Z,24.17
2019-05-23T23:05:51.038Z,24.77
2019-05-23T23:08:22.210Z,25.77
2019-05-23T23:10:52.911Z,25.63
2019-05-23T23:13:37.633Z,26.83
2019-05-23T23:15:57.138Z,25.50
2019-05-23T23:18:28.216Z,25.30
2019-05-23T23:20:59.043Z,25.60
2019-05-23T23:23:29.766Z,26.13
2019-05-23T23:26:00.643Z,24.77
2019-05-23T23:28:31.397Z,24.80
2019-05-23T23:31:01.861Z,25.73
2019-05-23T23:33:31.696Z,25.90
2019-05-23T23:36:02.306Z,25.10
2019-05-23T23:38:32.894Z,24.63
2019-05-23T23:41:03.351Z,24.60
2019-05-23T23:43:34.345Z,25.97
2019-05-23T23:46:22.731Z,24.93
2019-05-23T23:49:11.560Z,26.30
2019-05-23T23:51:59.895Z,26.37
2019-05-23T23:54:48.557Z,26.80
2019-05-23T23:57:36.837Z,25.97
